Time;durP1;ratioP1;P1;durP2;ratioP2;P2;SDS_P1;SDS_P2;PMS_P1;PMS_P2;Temp;Humidity;BMP_temperature;BMP_pressure;BME280_temperature;BME280_humidity;BME280_pressure;Samples;Min_cycle;Max_cycle;Signal;HPM_P1;HPM_P2
2022/06/10 00:01:18;;;;;;;3.67;2.97;;;;;;;-144.82;100.00;71671.09;5002859;28;20471;-73
2022/06/10 00:03:43;;;;;;;3.72;3.03;;;;;;;-144.82;100.00;71671.09;5016061;28;20046;-74
2022/06/10 00:06:10;;;;;;;5.55;2.97;;;;;;;-144.82;100.00;71671.09;5015871;28;20435;-74
2022/06/10 00:08:39;;;;;;;3.83;3.10;;;;;;;-144.82;100.00;71671.09;5015890;28;20046;-74
2022/06/10 00:11:07;;;;;;;4.70;3.42;;;;;;;-144.82;100.00;71671.09;5016009;28;20109;-74
2022/06/10 00:13:34;;;;;;;4.22;3.15;;;;;;;-144.82;100.00;71671.09;5015864;28;20054;-74
2022/06/10 00:16:01;;;;;;;4.13;3.33;;;;;;;-144.82;100.00;71671.09;5014476;28;20030;-74
2022/06/10 00:18:28;;;;;;;4.38;3.08;;;;;;;-144.82;100.00;71671.09;5016257;28;20076;-73
2022/06/10 00:20:54;;;;;;;5.13;3.40;;;;;;;-144.82;100.00;71671.09;5015840;28;20432;-73
2022/06/10 00:23:20;;;;;;;3.63;3.15;;;;;;;-144.82;100.00;71671.09;5015733;28;20149;-72
2022/06/10 00:25:46;;;;;;;5.90;3.58;;;;;;;-144.82;100.00;71671.09;5015668;28;20100;-74
2022/06/10 00:28:12;;;;;;;3.70;3.40;;;;;;;-144.82;100.00;71671.09;5014354;28;20483;-73
2022/06/10 00:30:38;;;;;;;3.97;3.50;;;;;;;-144.82;100.00;71671.09;5014195;28;20115;-72
2022/06/10 00:33:04;;;;;;;3.72;3.17;;;;;;;-144.82;100.00;71671.09;5015746;28;20080;-72
2022/06/10 00:35:30;;;;;;;4.13;3.10;;;;;;;-144.82;100.00;71671.09;5015756;28;20083;-74
2022/06/10 00:37:56;;;;;;;3.92;3.08;;;;;;;-144.82;100.00;71671.09;5015344;28;20120;-73
2022/06/10 00:40:31;;;;;;;5.32;3.42;;;;;;;-144.82;100.00;71671.09;5015762;28;20103;-73
2022/06/10 00:42:57;;;;;;;8.25;3.47;;;;;;;-144.82;100.00;71671.09;5015481;28;20037;-74
2022/06/10 00:46:00;;;;;;;3.38;3.03;;;;;;;-144.82;100.00;71671.09;5013910;28;20022;-73
2022/06/10 00:48:31;;;;;;;5.10;3.83;;;;;;;-144.82;100.00;71671.09;5015294;28;20133;-73
2022/06/10 00:51:00;;;;;;;4.25;3.85;;;;;;;-144.82;100.00;71671.09;5015211;28;20037;-73
2022/06/10 00:53:32;;;;;;;3.70;3.33;;;;;;;-144.82;100.00;71671.09;5014123;28;20049;-73
2022/06/10 00:55:58;;;;;;;5.55;3.40;;;;;;;-144.82;100.00;71671.09;4997648;28;20468;-73
2022/06/10 00:58:29;;;;;;;4.57;3.28;;;;;;;-144.82;100.00;71671.09;5015163;28;20309;-73
2022/06/10 01:00:55;;;;;;;3.75;3.42;;;;;;;-144.82;100.00;71671.09;5015020;28;20044;-73
2022/06/10 01:03:20;;;;;;;9.77;4.70;;;;;;;-144.82;100.00;71671.09;5014752;28;20475;-73
2022/06/10 01:05:46;;;;;;;3.88;3.47;;;;;;;-144.82;100.00;71671.09;5015161;28;20030;-73
2022/06/10 01:08:14;;;;;;;3.67;3.20;;;;;;;-144.82;100.00;71671.09;5014435;28;20488;-72
2022/06/10 01:11:02;;;;;;;5.28;3.63;;;;;;;-144.82;100.00;71671.09;5013768;28;20026;-72
2022/06/10 01:14:05;;;;;;;4.63;3.35;;;;;;;-144.82;100.00;71671.09;4997266;28;20112;-72
2022/06/10 01:16:30;;;;;;;4.50;3.95;;;;;;;-144.82;100.00;71671.09;5014764;28;20123;-72
2022/06/10 01:19:12;;;;;;;4.88;3.22;;;;;;;-144.82;100.00;71671.09;5014518;28;20030;-73
2022/06/10 01:22:02;;;;;;;4.03;3.60;;;;;;;-144.82;100.00;71671.09;4997103;28;20021;-73
2022/06/10 01:24:56;;;;;;;3.60;3.20;;;;;;;-144.82;100.00;71671.09;5014639;28;20041;-73
2022/06/10 01:27:48;;;;;;;5.10;3.92;;;;;;;-144.82;100.00;71671.09;5015434;28;20025;-74
2022/06/10 01:30:51;;;;;;;7.00;3.83;;;;;;;-144.82;100.00;71671.09;5015493;28;20021;-73
2022/06/10 01:33:32;;;;;;;4.45;3.42;;;;;;;-144.82;100.00;71671.09;5014497;28;20028;-72
2022/06/10 01:36:20;;;;;;;3.55;3.15;;;;;;;-144.82;100.00;71671.09;5013277;28;20040;-72
2022/06/10 01:38:55;;;;;;;6.70;3.97;;;;;;;-144.82;100.00;71671.09;5013146;28;20117;-73
2022/06/10 01:41:53;;;;;;;6.70;3.92;;;;;;;-144.82;100.00;71671.09;4995935;28;20116;-73
2022/06/10 01:44:37;;;;;;;5.07;3.85;;;;;;;-144.82;100.00;71671.09;5014890;28;20045;-73
2022/06/10 01:47:13;;;;;;;6.13;3.95;;;;;;;-144.82;100.00;71671.09;5014413;28;20029;-74
2022/06/10 01:49:46;;;;;;;4.53;3.72;;;;;;;-144.82;100.00;71671.09;5012774;28;20121;-73
2022/06/10 01:52:26;;;;;;;4.93;4.15;;;;;;;-144.82;100.00;71671.09;5014024;28;20025;-73
2022/06/10 01:55:05;;;;;;;4.57;4.07;;;;;;;-144.82;100.00;71671.09;5014374;28;20132;-73
2022/06/10 01:57:36;;;;;;;5.75;4.35;;;;;;;-144.82;100.00;71671.09;5014118;28;20030;-72
2022/06/10 02:00:06;;;;;;;4.95;3.92;;;;;;;-144.82;100.00;71671.09;4996230;28;20021;-72
2022/06/10 02:02:34;;;;;;;4.72;3.60;;;;;;;-144.82;100.00;71671.09;5014212;28;20041;-72
2022/06/10 02:05:03;;;;;;;5.97;3.75;;;;;;;-144.82;100.00;71671.09;5013064;28;20022;-73
2022/06/10 02:07:35;;;;;;;4.40;3.92;;;;;;;-144.82;100.00;71671.09;5012347;28;20053;-73
2022/06/10 02:10:13;;;;;;;5.90;3.85;;;;;;;-144.82;100.00;71671.09;5012807;28;20022;-72
2022/06/10 02:12:46;;;;;;;4.65;4.07;;;;;;;-144.82;100.00;71671.09;5012612;28;20025;-74
2022/06/10 02:15:40;;;;;;;6.05;4.13;;;;;;;-144.82;100.00;71671.09;5012644;28;20026;-73
2022/06/10 02:18:14;;;;;;;4.53;3.85;;;;;;;-144.82;100.00;71671.09;5013896;28;20042;-74
2022/06/10 02:20:53;;;;;;;5.10;4.60;;;;;;;-144.82;100.00;71671.09;5014213;28;20359;-73
2022/06/10 02:23:27;;;;;;;4.28;3.83;;;;;;;-144.82;100.00;71671.09;5013607;28;20479;-74
2022/06/10 02:25:56;;;;;;;5.68;4.10;;;;;;;-144.82;100.00;71671.09;5014009;28;20100;-74
2022/06/10 02:28:46;;;;;;;7.70;4.85;;;;;;;-144.82;100.00;71671.09;5012596;28;20022;-73
2022/06/10 02:31:19;;;;;;;5.05;4.00;;;;;;;-144.82;100.00;71671.09;5012692;28;20017;-73
2022/06/10 02:33:44;;;;;;;4.97;3.90;;;;;;;-144.82;100.00;71671.09;5012452;28;20479;-73
2022/06/10 02:36:14;;;;;;;5.93;4.60;;;;;;;-144.82;100.00;71671.09;5013762;28;20030;-73
2022/06/10 02:38:50;;;;;;;6.30;4.28;;;;;;;-144.82;100.00;71671.09;5013752;28;20029;-73
2022/06/10 02:41:36;;;;;;;5.22;4.25;;;;;;;-144.82;100.00;71671.09;5012287;28;20022;-73
2022/06/10 02:44:07;;;;;;;4.60;3.85;;;;;;;-144.82;100.00;71671.09;5012215;28;20422;-72
2022/06/10 02:46:38;;;;;;;4.80;4.13;;;;;;;-144.82;100.00;71671.09;5013544;28;20117;-73
2022/06/10 02:49:09;;;;;;;7.35;4.32;;;;;;;-144.82;100.00;71671.09;5012222;28;20376;-73
2022/06/10 02:51:36;;;;;;;4.82;3.88;;;;;;;-144.82;100.00;71671.09;5013474;28;20022;-73
2022/06/10 02:54:04;;;;;;;4.40;3.67;;;;;;;-144.82;100.00;71671.09;5015780;28;20029;-73
2022/06/10 02:56:30;;;;;;;5.80;4.35;;;;;;;-144.82;100.00;71671.09;5017207;28;20029;-73
2022/06/10 03:02:01;;;;;;;6.18;4.53;;;;;;;-144.82;100.00;71671.09;5016528;28;20087;-73
2022/06/10 03:04:45;;;;;;;8.77;4.45;;;;;;;-144.82;100.00;71671.09;5017281;28;20037;-73
2022/06/10 03:07:30;;;;;;;4.57;3.83;;;;;;;-144.82;100.00;71671.09;5017617;28;20034;-72
2022/06/10 03:10:14;;;;;;;4.68;4.15;;;;;;;-144.82;100.00;71671.09;5017348;28;20025;-72
2022/06/10 03:13:03;;;;;;;6.00;4.30;;;;;;;-144.82;100.00;71671.09;5017125;28;20037;-73
2022/06/10 03:16:03;;;;;;;4.75;4.25;;;;;;;-144.82;100.00;71671.09;4970466;28;20409;-73
2022/06/10 03:18:52;;;;;;;6.88;4.45;;;;;;;-144.82;100.00;71671.09;5015684;28;20033;-74
2022/06/10 03:21:36;;;;;;;7.10;4.65;;;;;;;-144.82;100.00;71671.09;4999227;28;20487;-75
2022/06/10 03:24:10;;;;;;;5.95;4.05;;;;;;;-144.82;100.00;71671.09;5017132;28;20480;-73
2022/06/10 03:26:49;;;;;;;6.45;4.35;;;;;;;-144.82;100.00;71671.09;5017005;28;20053;-74
2022/06/10 03:29:26;;;;;;;6.00;4.00;;;;;;;-144.82;100.00;71671.09;5015616;28;20026;-74
2022/06/10 03:31:56;;;;;;;5.78;4.43;;;;;;;-144.82;100.00;71671.09;5016562;28;20052;-73
2022/06/10 03:34:35;;;;;;;6.55;3.75;;;;;;;-144.82;100.00;71671.09;5016089;28;20049;-72
2022/06/10 03:37:01;;;;;;;7.82;5.40;;;;;;;-144.82;100.00;71671.09;4999715;28;20391;-73
2022/06/10 03:39:27;;;;;;;5.68;3.90;;;;;;;-144.82;100.00;71671.09;5015552;28;20113;-73
2022/06/10 03:41:59;;;;;;;10.57;4.43;;;;;;;-144.82;100.00;71671.09;5015391;28;20109;-72
2022/06/10 03:44:26;;;;;;;6.32;4.10;;;;;;;-144.82;100.00;71671.09;5016711;28;20032;-73
2022/06/10 03:46:53;;;;;;;5.00;4.15;;;;;;;-144.82;100.00;71671.09;5016632;28;20416;-73
2022/06/10 03:49:26;;;;;;;6.50;4.15;;;;;;;-144.82;100.00;71671.09;5016730;28;20037;-73
2022/06/10 03:51:51;;;;;;;6.10;4.03;;;;;;;-144.82;100.00;71671.09;5015194;28;20422;-73
2022/06/10 03:54:19;;;;;;;6.70;4.32;;;;;;;-144.82;100.00;71671.09;5016408;28;20030;-73
2022/06/10 03:56:45;;;;;;;5.18;4.00;;;;;;;-144.82;100.00;71671.09;5015031;28;20069;-73
2022/06/10 03:59:10;;;;;;;4.80;3.70;;;;;;;-144.82;100.00;71671.09;5016613;28;20053;-74
2022/06/10 04:01:36;;;;;;;5.30;4.18;;;;;;;-144.82;100.00;71671.09;5016161;28;20064;-73
2022/06/10 04:04:02;;;;;;;5.72;3.67;;;;;;;-144.82;100.00;71671.09;5014212;28;20026;-74
2022/06/10 04:06:27;;;;;;;7.95;4.20;;;;;;;-144.82;100.00;71671.09;5016477;28;20121;-73
2022/06/10 04:08:53;;;;;;;6.55;3.60;;;;;;;-144.82;100.00;71671.09;5015319;28;20463;-73
2022/06/10 04:11:19;;;;;;;3.30;3.00;;;;;;;-144.82;100.00;71671.09;5015810;28;20034;-73
2022/06/10 04:13:45;;;;;;;4.80;3.70;;;;;;;-144.82;100.00;71671.09;5014511;28;20057;-74
2022/06/10 04:16:22;;;;;;;4.25;3.42;;;;;;;-144.82;100.00;71671.09;5006641;28;20022;-73
2022/06/10 04:18:51;;;;;;;5.18;4.40;;;;;;;-144.82;100.00;71671.09;4995460;28;20041;-73
2022/06/10 04:21:17;;;;;;;3.90;3.50;;;;;;;-144.82;100.00;71671.09;4996022;28;20018;-74
2022/06/10 04:23:43;;;;;;;4.72;3.45;;;;;;;-144.82;100.00;71671.09;4994889;28;20062;-74
2022/06/10 04:26:10;;;;;;;8.98;3.70;;;;;;;-144.82;100.00;71671.09;4996064;28;20135;-73
2022/06/10 04:28:37;;;;;;;6.10;3.67;;;;;;;-144.82;100.00;71671.09;4995366;28;20040;-73
2022/06/10 04:31:04;;;;;;;4.30;3.20;;;;;;;-144.82;100.00;71671.09;4995248;28;20460;-73
2022/06/10 04:33:33;;;;;;;6.25;4.18;;;;;;;-144.82;100.00;71671.09;4996822;28;20049;-74
2022/06/10 04:36:01;;;;;;;5.32;3.70;;;;;;;-144.82;100.00;71671.09;5000694;28;20108;-75
2022/06/10 04:38:27;;;;;;;6.63;3.38;;;;;;;-144.82;100.00;71671.09;4996783;28;20031;-75
2022/06/10 04:40:55;;;;;;;3.30;2.95;;;;;;;-144.82;100.00;71671.09;4998595;28;20057;-76
2022/06/10 04:43:22;;;;;;;4.75;3.30;;;;;;;-144.82;100.00;71671.09;4998266;28;20088;-76
2022/06/10 04:45:51;;;;;;;4.82;3.25;;;;;;;-144.82;100.00;71671.09;4963156;28;20058;-76
2022/06/10 04:48:19;;;;;;;3.00;2.70;;;;;;;-144.82;100.00;71671.09;4980032;28;20092;-76
2022/06/10 04:51:09;;;;;;;4.55;2.97;;;;;;;-144.82;100.00;71671.09;4987136;28;19998;-74
2022/06/10 04:53:35;;;;;;;4.07;3.47;;;;;;;-144.82;100.00;71671.09;4988926;28;20022;-77
2022/06/10 04:56:02;;;;;;;10.63;4.40;;;;;;;-144.82;100.00;71671.09;5002030;28;20479;-76
2022/06/10 04:58:28;;;;;;;4.97;3.13;;;;;;;-144.82;100.00;71671.09;5002465;28;20037;-76
2022/06/10 05:00:55;;;;;;;7.53;4.38;;;;;;;-144.82;100.00;71671.09;4997083;28;20022;-76
2022/06/10 05:03:20;;;;;;;3.78;3.38;;;;;;;-144.82;100.00;71671.09;4996670;28;20054;-75
2022/06/10 05:05:45;;;;;;;6.22;3.80;;;;;;;-144.82;100.00;71671.09;4977496;28;20065;-77
2022/06/10 05:08:14;;;;;;;3.85;3.00;;;;;;;-144.82;100.00;71671.09;4997161;28;20070;-78
2022/06/10 05:10:39;;;;;;;3.58;3.25;;;;;;;-144.82;100.00;71671.09;4999907;28;20040;-77
2022/06/10 05:13:05;;;;;;;3.42;2.80;;;;;;;-144.82;100.00;71671.09;4996054;28;20022;-76
2022/06/10 05:15:31;;;;;;;3.10;2.80;;;;;;;-144.82;100.00;71671.09;4995840;28;20041;-77
2022/06/10 05:17:58;;;;;;;4.20;2.60;;;;;;;-144.82;100.00;71671.09;5013920;28;20367;-76
2022/06/10 05:20:37;;;;;;;4.13;3.72;;;;;;;-144.82;100.00;71671.09;5021353;28;20027;-77
2022/06/10 05:23:03;;;;;;;4.22;3.08;;;;;;;-144.82;100.00;71671.09;4998763;28;20451;-79
2022/06/10 05:25:29;;;;;;;4.25;2.85;;;;;;;-144.82;100.00;71671.09;4995247;28;20293;-75
2022/06/10 05:27:54;;;;;;;3.03;2.50;;;;;;;-144.82;100.00;71671.09;4997752;28;20030;-75
2022/06/10 05:30:23;;;;;;;3.75;2.67;;;;;;;-144.82;100.00;71671.09;5015562;28;20353;-78
2022/06/10 05:32:49;;;;;;;5.38;2.58;;;;;;;-144.82;100.00;71671.09;5013571;28;20057;-76
2022/06/10 05:35:15;;;;;;;2.78;2.33;;;;;;;-144.82;100.00;71671.09;5014602;28;20072;-75
2022/06/10 05:37:41;;;;;;;4.85;3.17;;;;;;;-144.82;100.00;71671.09;5015642;28;20025;-77
2022/06/10 05:40:07;;;;;;;4.57;3.22;;;;;;;-144.82;100.00;71671.09;5015085;28;20030;-76
2022/06/10 05:42:33;;;;;;;3.55;3.13;;;;;;;-144.82;100.00;71671.09;5016183;28;20026;-75
2022/06/10 05:44:58;;;;;;;9.05;3.70;;;;;;;-144.82;100.00;71671.09;5016846;28;20525;-74
2022/06/10 05:47:27;;;;;;;5.72;4.50;;;;;;;-144.82;100.00;71671.09;5016747;28;20026;-77
2022/06/10 05:49:56;;;;;;;4.38;3.90;;;;;;;-144.82;100.00;71671.09;5017493;28;20022;-77
2022/06/10 05:52:24;;;;;;;4.63;3.22;;;;;;;-144.82;100.00;71671.09;5014881;28;20033;-77
2022/06/10 05:54:51;;;;;;;5.15;3.38;;;;;;;-144.82;100.00;71671.09;5014237;28;20503;-76
2022/06/10 05:57:17;;;;;;;6.22;3.60;;;;;;;-144.82;100.00;71671.09;5016206;28;20029;-77
2022/06/10 05:59:44;;;;;;;3.30;2.33;;;;;;;-144.82;100.00;71671.09;5013402;28;20014;-77
2022/06/10 06:02:10;;;;;;;5.50;3.25;;;;;;;-144.82;100.00;71671.09;5014553;28;20037;-77
2022/06/10 06:04:37;;;;;;;3.60;3.30;;;;;;;-144.82;100.00;71671.09;5015924;28;20152;-76
2022/06/10 06:07:03;;;;;;;6.90;3.90;;;;;;;-144.82;100.00;71671.09;5015509;28;20022;-75
2022/06/10 06:09:28;;;;;;;3.80;3.42;;;;;;;-144.82;100.00;71671.09;5016377;28;20045;-77
2022/06/10 06:11:57;;;;;;;6.70;3.50;;;;;;;-144.82;100.00;71671.09;5015594;28;20026;-76
2022/06/10 06:14:27;;;;;;;8.15;4.72;;;;;;;-144.82;100.00;71671.09;5015914;28;20029;-76
2022/06/10 06:16:59;;;;;;;5.90;4.18;;;;;;;-144.82;100.00;71671.09;5016044;28;20068;-76
2022/06/10 06:19:26;;;;;;;3.33;2.70;;;;;;;-144.82;100.00;71671.09;5017981;28;20042;-76
2022/06/10 06:21:51;;;;;;;5.90;2.65;;;;;;;-144.82;100.00;71671.09;5016042;28;20061;-76
2022/06/10 06:24:17;;;;;;;2.97;2.35;;;;;;;-144.82;100.00;71671.09;5016169;28;20045;-76
2022/06/10 06:26:42;;;;;;;4.40;2.65;;;;;;;-144.82;100.00;71671.09;5015780;28;20037;-77
2022/06/10 06:29:09;;;;;;;2.70;2.25;;;;;;;-144.82;100.00;71671.09;5015921;28;20328;-76
2022/06/10 06:31:35;;;;;;;4.55;2.90;;;;;;;-144.82;100.00;71671.09;5000747;28;20041;-77
2022/06/10 06:34:00;;;;;;;3.53;2.22;;;;;;;-144.82;100.00;71671.09;5016816;28;20026;-76
2022/06/10 06:36:27;;;;;;;2.92;2.58;;;;;;;-144.82;100.00;71671.09;5016726;28;20058;-77
2022/06/10 06:38:52;;;;;;;3.47;2.42;;;;;;;-144.82;100.00;71671.09;5015201;28;20109;-76
2022/06/10 06:41:19;;;;;;;4.90;2.60;;;;;;;-144.82;100.00;71671.09;5017217;28;20046;-76
2022/06/10 06:43:44;;;;;;;4.22;2.40;;;;;;;-144.82;100.00;71671.09;5016890;28;20055;-76
2022/06/10 06:46:15;;;;;;;3.58;2.55;;;;;;;-144.82;100.00;71671.09;5018029;28;20040;-78
2022/06/10 06:48:41;;;;;;;3.63;3.22;;;;;;;-144.82;100.00;71671.09;5018002;28;20045;-76
2022/06/10 06:51:07;;;;;;;3.50;2.03;;;;;;;-144.82;100.00;71671.09;5015710;28;20025;-76
2022/06/10 06:53:33;;;;;;;4.30;2.50;;;;;;;-144.82;100.00;71671.09;5015285;28;20029;-77
2022/06/10 06:56:01;;;;;;;2.70;2.00;;;;;;;-144.82;100.00;71671.09;5017537;28;20040;-77
2022/06/10 06:58:26;;;;;;;4.18;2.30;;;;;;;-144.82;100.00;71671.09;5018121;28;20479;-77
2022/06/10 07:00:52;;;;;;;2.40;2.17;;;;;;;-144.82;100.00;71671.09;5016805;28;20041;-77
2022/06/10 07:03:17;;;;;;;4.22;3.70;;;;;;;-144.82;100.00;71671.09;5016795;28;20033;-77
2022/06/10 07:05:43;;;;;;;4.43;2.28;;;;;;;-144.82;100.00;71671.09;5018096;28;20053;-76
2022/06/10 07:08:10;;;;;;;3.90;2.50;;;;;;;-144.82;100.00;71671.09;5016301;28;20034;-77
2022/06/10 07:10:35;;;;;;;4.00;2.22;;;;;;;-144.82;100.00;71671.09;5018393;28;20026;-78
2022/06/10 07:13:01;;;;;;;8.00;2.38;;;;;;;-144.82;100.00;71671.09;5017623;28;20028;-78
2022/06/10 07:15:27;;;;;;;4.15;2.72;;;;;;;-144.82;100.00;71671.09;5003804;28;20074;-81
2022/06/10 07:17:52;;;;;;;4.38;1.73;;;;;;;-144.82;100.00;71671.09;4980550;28;20090;-78
2022/06/10 07:20:23;;;;;;;8.13;2.33;;;;;;;-144.82;100.00;71671.09;4996674;28;20030;-80
2022/06/10 07:22:49;;;;;;;6.88;2.08;;;;;;;-144.82;100.00;71671.09;4999757;28;20038;-80
2022/06/10 07:25:15;;;;;;;1.80;1.70;;;;;;;-144.82;100.00;71671.09;5003021;28;20032;-80
2022/06/10 07:27:43;;;;;;;10.13;2.38;;;;;;;-144.82;100.00;71671.09;5013732;28;20081;-79
2022/06/10 07:30:10;;;;;;;7.05;2.00;;;;;;;-144.82;100.00;71671.09;5014574;28;20341;-78
2022/06/10 07:32:36;;;;;;;7.80;1.70;;;;;;;-144.82;100.00;71671.09;4979287;28;20045;-79
2022/06/10 07:35:01;;;;;;;1.70;1.60;;;;;;;-144.82;100.00;71671.09;4986602;28;20026;-82
2022/06/10 07:37:27;;;;;;;2.97;1.27;;;;;;;-144.82;100.00;71671.09;4992164;28;20033;-85
2022/06/10 07:39:52;;;;;;;2.47;1.30;;;;;;;-144.82;100.00;71671.09;4993614;28;20022;-84
2022/06/10 07:42:18;;;;;;;4.35;1.70;;;;;;;-144.82;100.00;71671.09;4995965;28;20022;-85
2022/06/10 07:44:44;;;;;;;8.32;1.77;;;;;;;-144.82;100.00;71671.09;4996015;28;20030;-83
2022/06/10 07:47:13;;;;;;;1.40;1.08;;;;;;;-144.82;100.00;71671.09;4995604;28;20026;-81
2022/06/10 07:49:39;;;;;;;2.03;1.30;;;;;;;-144.82;100.00;71671.09;4980594;28;20184;-82
2022/06/10 07:52:06;;;;;;;1.67;1.20;;;;;;;-144.82;100.00;71671.09;4983061;28;20117;-86
2022/06/10 07:54:34;;;;;;;6.65;1.50;;;;;;;-144.82;100.00;71671.09;5000198;28;20042;-86
2022/06/10 07:56:59;;;;;;;2.50;1.50;;;;;;;-144.82;100.00;71671.09;5000922;28;20121;-81
2022/06/10 07:59:25;;;;;;;2.28;1.33;;;;;;;-144.82;100.00;71671.09;4997450;28;20448;-85
2022/06/10 08:01:51;;;;;;;2.67;1.27;;;;;;;-144.82;100.00;71671.09;4999889;28;20022;-89
2022/06/10 08:04:16;;;;;;;5.35;1.67;;;;;;;-144.82;100.00;71671.09;4997763;28;20029;-88
2022/06/10 08:06:44;;;;;;;1.35;1.13;;;;;;;-144.82;100.00;71671.09;4984175;28;20542;-83
2022/06/10 08:09:10;;;;;;;0.98;0.98;;;;;;;-144.82;100.00;71671.09;4998001;28;20079;-82
2022/06/10 08:11:37;;;;;;;2.13;1.20;;;;;;;-144.82;100.00;71671.09;5000903;28;20038;-88
2022/06/10 08:14:03;;;;;;;1.77;1.17;;;;;;;-144.82;100.00;71671.09;4999095;28;20125;-85
2022/06/10 08:16:29;;;;;;;0.88;0.80;;;;;;;-144.82;100.00;71671.09;4982680;28;20243;-82
2022/06/10 08:18:55;;;;;;;1.25;1.15;;;;;;;-144.82;100.00;71671.09;5014554;28;20056;-84
2022/06/10 08:24:06;;;;;;;1.25;1.15;;;;;;;-144.82;100.00;71671.09;5027129;28;20120;-89
2022/06/10 08:26:33;;;;;;;1.10;1.00;;;;;;;-144.82;100.00;71671.09;5031918;28;20017;-84
2022/06/10 08:29:00;;;;;;;1.88;1.30;;;;;;;-144.82;100.00;71671.09;5022100;28;20021;-80
2022/06/10 08:31:26;;;;;;;3.78;2.40;;;;;;;-144.82;100.00;71671.09;5001420;28;20521;-79
2022/06/10 08:33:52;;;;;;;3.70;1.40;;;;;;;-144.82;100.00;71671.09;5005368;28;20054;-86
2022/06/10 08:36:18;;;;;;;3.70;2.25;;;;;;;-144.82;100.00;71671.09;4995096;28;20066;-85
2022/06/10 08:38:44;;;;;;;2.33;1.40;;;;;;;-144.82;100.00;71671.09;4994893;28;20029;-78
2022/06/10 08:41:13;;;;;;;2.53;1.70;;;;;;;-144.82;100.00;71671.09;4994954;28;20026;-76
2022/06/10 08:43:41;;;;;;;2.78;1.60;;;;;;;-144.82;100.00;71671.09;4993201;28;20120;-75
2022/06/10 08:46:25;;;;;;;1.77;1.27;;;;;;;-144.82;100.00;71671.09;4994698;28;20026;-76
2022/06/10 08:49:22;;;;;;;2.53;2.30;;;;;;;-144.82;100.00;71671.09;4994975;28;20448;-80
2022/06/10 08:52:06;;;;;;;3.80;1.55;;;;;;;-144.82;100.00;71671.09;4996031;28;20041;-78
2022/06/10 08:55:00;;;;;;;4.95;2.60;;;;;;;-144.82;100.00;71671.09;4994654;28;20053;-78
2022/06/10 08:57:36;;;;;;;3.35;1.50;;;;;;;-144.82;100.00;71671.09;4993168;28;20034;-77
2022/06/10 09:00:06;;;;;;;11.52;2.65;;;;;;;-144.82;100.00;71671.09;4994102;28;20526;-79
2022/06/10 09:02:37;;;;;;;4.17;2.20;;;;;;;-144.82;100.00;71671.09;4994376;28;20071;-80
2022/06/10 09:05:05;;;;;;;6.03;2.10;;;;;;;-144.82;100.00;71671.09;4995282;28;20109;-79
2022/06/10 09:07:52;;;;;;;2.67;1.70;;;;;;;-144.82;100.00;71671.09;4994681;28;20066;-80
2022/06/10 09:10:23;;;;;;;2.88;2.05;;;;;;;-144.82;100.00;71671.09;4984627;28;20057;-78
2022/06/10 09:13:04;;;;;;;2.17;1.50;;;;;;;-144.82;100.00;71671.09;5015227;28;20049;-79
2022/06/10 09:15:30;;;;;;;1.65;1.55;;;;;;;-144.82;100.00;71671.09;5019614;28;20091;-77
2022/06/10 09:18:03;;;;;;;2.80;1.60;;;;;;;-144.82;100.00;71671.09;5015792;28;20038;-78
2022/06/10 09:20:52;;;;;;;2.58;1.98;;;;;;;-144.82;100.00;71671.09;4998066;28;20053;-78
2022/06/10 09:23:29;;;;;;;2.58;2.00;;;;;;;-144.82;100.00;71671.09;5014914;28;20223;-77
2022/06/10 09:25:56;;;;;;;2.33;1.75;;;;;;;-144.82;100.00;71671.09;5011771;28;20117;-77
2022/06/10 09:28:22;;;;;;;5.13;2.45;;;;;;;-144.82;100.00;71671.09;4992808;28;20026;-77
2022/06/10 09:30:53;;;;;;;6.13;1.70;;;;;;;-144.82;100.00;71671.09;4992510;28;20069;-78
2022/06/10 09:33:40;;;;;;;7.35;4.60;;;;;;;-144.82;100.00;71671.09;4997344;28;20030;-77
2022/06/10 09:36:43;;;;;;;4.28;2.28;;;;;;;-144.82;100.00;71671.09;4994833;28;20108;-79
2022/06/10 09:42:30;;;;;;;3.00;1.80;;;;;;;-144.82;100.00;71671.09;4993835;28;20034;-80
2022/06/10 09:45:25;;;;;;;7.68;2.78;;;;;;;-144.82;100.00;71671.09;4976788;28;20038;-80
2022/06/10 09:48:15;;;;;;;1.95;1.70;;;;;;;-144.82;100.00;71671.09;4994789;28;20471;-83
2022/06/10 09:51:05;;;;;;;3.63;2.28;;;;;;;-144.82;100.00;71671.09;4993957;28;20026;-82
2022/06/10 09:53:48;;;;;;;3.05;2.33;;;;;;;-144.82;100.00;71671.09;4993943;28;20058;-78
2022/06/10 09:56:32;;;;;;;2.60;2.13;;;;;;;-144.82;100.00;71671.09;4994473;28;20438;-81
2022/06/10 09:59:29;;;;;;;3.63;2.08;;;;;;;-144.82;100.00;71671.09;4994779;28;20026;-79
2022/06/10 10:02:16;;;;;;;2.40;2.08;;;;;;;-144.82;100.00;71671.09;4992605;28;20022;-78
2022/06/10 10:05:00;;;;;;;3.50;1.80;;;;;;;-144.82;100.00;71671.09;4993993;28;20117;-80
2022/06/10 10:07:31;;;;;;;3.35;1.63;;;;;;;-144.82;100.00;71671.09;4996738;28;20030;-78
2022/06/10 10:10:14;;;;;;;2.10;1.70;;;;;;;-144.82;100.00;71671.09;4994817;28;20038;-81
2022/06/10 10:12:53;;;;;;;4.15;1.65;;;;;;;-144.82;100.00;71671.09;4995433;28;20045;-79
2022/06/10 10:15:28;;;;;;;7.35;2.28;;;;;;;-144.82;100.00;71671.09;4994733;28;20022;-78
2022/06/10 10:18:08;;;;;;;7.72;2.15;;;;;;;-144.82;100.00;71671.09;4992116;28;20105;-79
2022/06/10 10:20:45;;;;;;;6.57;2.17;;;;;;;-144.82;100.00;71671.09;4993409;28;20026;-80
2022/06/10 10:23:20;;;;;;;42.28;8.20;;;;;;;-144.82;100.00;71671.09;4976500;28;20041;-79
2022/06/10 10:25:46;;;;;;;1.52;1.42;;;;;;;-144.82;100.00;71671.09;4977133;28;20547;-79
2022/06/10 10:28:22;;;;;;;1.70;1.40;;;;;;;-144.82;100.00;71671.09;4992854;28;20101;-80
2022/06/10 10:31:17;;;;;;;1.80;1.67;;;;;;;-144.82;100.00;71671.09;4993088;28;20045;-81
2022/06/10 10:33:43;;;;;;;4.65;1.60;;;;;;;-144.82;100.00;71671.09;4994081;28;20113;-79
2022/06/10 10:36:30;;;;;;;2.45;1.45;;;;;;;-144.82;100.00;71671.09;4994058;28;20383;-77
2022/06/10 10:38:57;;;;;;;4.95;1.60;;;;;;;-144.82;100.00;71671.09;4993584;28;20026;-77
2022/06/10 10:41:26;;;;;;;8.98;1.70;;;;;;;-144.82;100.00;71671.09;4977291;28;20018;-82
2022/06/10 10:43:56;;;;;;;2.42;2.20;;;;;;;-144.82;100.00;71671.09;4994624;28;20515;-82
2022/06/10 10:46:54;;;;;;;17.35;5.32;;;;;;;-144.82;100.00;71671.09;4993268;28;20054;-80
2022/06/10 10:49:51;;;;;;;8.38;2.22;;;;;;;-144.82;100.00;71671.09;4995703;28;20022;-79
2022/06/10 10:52:20;;;;;;;1.70;1.35;;;;;;;-144.82;100.00;71671.09;4995299;28;20026;-84
2022/06/10 10:54:48;;;;;;;1.65;1.40;;;;;;;-144.82;100.00;71671.09;4993888;28;20058;-81
2022/06/10 10:57:21;;;;;;;1.80;1.70;;;;;;;-144.82;100.00;71671.09;4992763;28;20030;-82
2022/06/10 11:00:13;;;;;;;4.40;1.60;;;;;;;-144.82;100.00;71671.09;4992498;28;20030;-81
2022/06/10 11:02:41;;;;;;;12.40;2.60;;;;;;;-144.82;100.00;71671.09;4983199;28;20049;-79
2022/06/10 11:05:17;;;;;;;3.08;1.85;;;;;;;-144.82;100.00;71671.09;4992643;28;20029;-80
2022/06/10 11:07:43;;;;;;;2.60;1.40;;;;;;;-144.82;100.00;71671.09;4993723;28;20019;-81
2022/06/10 11:10:18;;;;;;;4.75;2.22;;;;;;;-144.82;100.00;71671.09;4992431;28;20026;-79
2022/06/10 11:12:44;;;;;;;2.70;1.60;;;;;;;-144.82;100.00;71671.09;4993270;28;20035;-77
2022/06/10 11:15:22;;;;;;;3.83;1.65;;;;;;;-144.82;100.00;71671.09;4994616;28;20121;-76
2022/06/10 11:17:49;;;;;;;7.30;2.15;;;;;;;-144.82;100.00;71671.09;4997062;28;20068;-81
2022/06/10 11:20:14;;;;;;;4.78;1.38;;;;;;;-144.82;100.00;71671.09;4996568;28;20027;-80
2022/06/10 11:22:48;;;;;;;3.70;2.10;;;;;;;-144.82;100.00;71671.09;5009512;28;20041;-79
2022/06/10 11:25:26;;;;;;;2.58;1.25;;;;;;;-144.82;100.00;71671.09;5016332;28;20062;-78
2022/06/10 11:28:01;;;;;;;1.65;1.40;;;;;;;-144.82;100.00;71671.09;5014964;28;20034;-79
2022/06/10 11:30:37;;;;;;;4.43;1.95;;;;;;;-144.82;100.00;71671.09;4996219;28;20025;-78
2022/06/10 11:33:09;;;;;;;2.60;1.17;;;;;;;-144.82;100.00;71671.09;5010100;28;20366;-80
2022/06/10 11:35:41;;;;;;;3.47;1.25;;;;;;;-144.82;100.00;71671.09;5015422;28;20033;-78
2022/06/10 11:38:16;;;;;;;2.78;1.05;;;;;;;-144.82;100.00;71671.09;4999100;28;20112;-78
2022/06/10 11:40:48;;;;;;;1.65;1.20;;;;;;;-144.82;100.00;71671.09;5015342;28;20045;-79